Weather History for Erie, CO

Change the Weather History Date:

Thursday, April 25, 2013

  Actual Average (KBJC) Record (KBJC)
Temperature  
Mean Temperature 46 °F -  
Max Temperature 66 °F 58 °F 80 °F (1987)
Min Temperature 27 °F 37 °F 28 °F (2006)
Degree Days  
Heating Degree Days 18    
Moisture  
Dew Point 24 °F    
Average Humidity 51    
Maximum Humidity 91    
Minimum Humidity 14    
Precipitation  
Precipitation 0.00 in - - ()
Sea Level Pressure  
Sea Level Pressure 30.03 in    
Wind  
Wind Speed 1 mph (East)    
Max Wind Speed 13 mph    
Max Gust Speed -    
Visibility 10 miles    
Events      
Averages and records for this station are not official NWS values.
T = Trace of Precipitation, MM = Missing Value Source: NWS Daily Summary

Daily Weather History Graph

Daily Weather History Graph

Search for Another Location

Airport:

Trip Planner

Search our weather history database for the weather conditions in past years. The results will help you decide how hot, cold, wet, or windy it might be!

Date:

Astronomy

Apr. 25, 2013 Rise Set
Actual Time 6:07 AM MDT 7:49 PM MDT
Civil Twilight 5:38 AM MDT 8:18 PM MDT
Nautical Twilight 5:03 AM MDT 8:53 PM MDT
Astronomical Twilight 4:26 AM MDT 9:30 PM MDT
Moon 8:05 PM MDT (4/25) 5:52 AM MDT (4/25)
Length of Visible Light 14h 39m
Length of Day
13h 41m
Full, 100% of the Moon is Illuminated
Apr 25
Full
Apr 25
Full
May 2
Last Quarter
May 9
New
May 17
First Quarter

Hourly Weather History & Observations

Time (MDT) Temp. Windchill Dew Point Humidity Pressure Visibility Wind Dir Wind Speed Gust Speed Precip Events Conditions
12:16 AM 34.0 °F - 25.9 °F 72% 30.16 in 10.0 mi Calm Calm - N/A   Clear
12:36 AM 34.2 °F - 26.1 °F 72% 30.16 in 10.0 mi Calm Calm - N/A   Clear
12:56 AM 33.1 °F - 26.1 °F 75% 30.15 in 10.0 mi Calm Calm - N/A   Clear
1:16 AM 32.5 °F - 25.5 °F 75% 30.15 in 10.0 mi Calm Calm - N/A   Clear
1:36 AM 31.5 °F - 27.3 °F 85% 30.14 in 10.0 mi Calm Calm - N/A   Clear
1:56 AM 31.3 °F - 27.1 °F 85% 30.13 in 10.0 mi Calm Calm - N/A   Clear
2:16 AM 31.1 °F - 26.4 °F 83% 30.13 in 10.0 mi Calm Calm - N/A   Clear
2:36 AM 30.6 °F - 26.4 °F 85% 30.12 in 10.0 mi Calm Calm - N/A   Clear
2:56 AM 29.7 °F - 25.7 °F 85% 30.12 in 10.0 mi Calm Calm - N/A   Clear
3:16 AM 29.3 °F - 26.1 °F 88% 30.11 in 10.0 mi Calm Calm - N/A   Clear
3:36 AM 27.9 °F - 25.3 °F 90% 30.12 in 10.0 mi Calm Calm - N/A   Clear
3:56 AM 29.5 °F - 25.3 °F 85% 30.12 in 10.0 mi Calm Calm - N/A   Clear
4:16 AM 28.6 °F - 24.6 °F 85% 30.11 in 10.0 mi Calm Calm - N/A   Clear
4:36 AM 28.8 °F - 24.1 °F 83% 30.11 in 10.0 mi Calm Calm - N/A   Clear
4:56 AM 28.2 °F - 25.0 °F 88% 30.10 in 10.0 mi Calm Calm - N/A   Clear
5:16 AM 27.7 °F - 25.3 °F 91% 30.11 in 10.0 mi Calm Calm - N/A   Clear
5:36 AM 27.5 °F - 24.6 °F 89% 30.10 in 10.0 mi Calm Calm - N/A   Clear
5:56 AM 27.5 °F - 23.9 °F 86% 30.10 in 10.0 mi Calm Calm - N/A   Clear
6:16 AM 29.5 °F 25.9 °F 24.6 °F 82% 30.11 in 10.0 mi SW 3.5 mph - N/A   Clear
6:36 AM 29.8 °F 26.3 °F 23.7 °F 78% 30.11 in 10.0 mi ENE 3.5 mph - N/A   Clear
6:56 AM 29.1 °F 25.4 °F 24.6 °F 83% 30.11 in 10.0 mi SW 3.5 mph - N/A   Clear
7:16 AM 31.3 °F - 26.1 °F 81% 30.10 in 10.0 mi Calm Calm - N/A   Clear
7:36 AM 32.2 °F - 27.0 °F 81% 30.11 in 10.0 mi Calm Calm - N/A   Clear
7:56 AM 34.5 °F - 26.8 °F 73% 30.09 in 10.0 mi Calm Calm - N/A   Clear
8:16 AM 37.4 °F - 23.2 °F 57% 30.09 in 10.0 mi Calm Calm - N/A   Clear
8:36 AM 39.9 °F - 22.8 °F 50% 30.09 in 10.0 mi Calm Calm - N/A   Clear
8:56 AM 41.9 °F - 20.7 °F 43% 30.09 in 10.0 mi Calm Calm - N/A   Clear
9:16 AM 44.1 °F - 19.0 °F 37% 30.08 in 10.0 mi Calm Calm - N/A   Clear
9:36 AM 45.7 °F 44.4 °F 21.2 °F 38% 30.08 in 10.0 mi ENE 3.5 mph - N/A   Clear
9:56 AM 47.1 °F - 18.7 °F 32% 30.08 in 10.0 mi ENE 3.5 mph - N/A   Clear
10:16 AM 48.4 °F - 21.4 °F 35% 30.08 in 10.0 mi NNW 3.5 mph - N/A   Clear
10:36 AM 50.2 °F - 22.8 °F 34% 30.07 in 10.0 mi Calm Calm - N/A   Clear
10:56 AM 50.9 °F - 20.8 °F 31% 30.07 in 10.0 mi Calm Calm - N/A   Clear
11:16 AM 53.1 °F - 23.4 °F 32% 30.06 in 10.0 mi East 3.5 mph - N/A   Clear
11:36 AM 54.1 °F - 22.8 °F 30% 30.05 in 10.0 mi Calm Calm - N/A   Clear
11:56 AM 56.3 °F - 22.1 °F 27% 30.03 in 10.0 mi Calm Calm - N/A   Clear
12:16 PM 57.2 °F - 18.1 °F 22% 30.02 in 10.0 mi ESE 3.5 mph - N/A   Clear
12:36 PM 59.0 °F - 20.1 °F 22% 30.01 in 10.0 mi East 4.6 mph - N/A   Clear
12:56 PM 59.9 °F - 19.6 °F 21% 30.00 in 10.0 mi ESE 3.5 mph - N/A   Clear
1:16 PM 60.8 °F - 21.6 °F 22% 29.99 in 10.0 mi Calm Calm - N/A   Clear
1:36 PM 61.5 °F - 19.4 °F 20% 29.97 in 10.0 mi East 5.8 mph - N/A   Clear
1:56 PM 61.5 °F - 18.1 °F 19% 29.97 in 10.0 mi East 5.8 mph - N/A   Clear
2:16 PM 63.1 °F - 18.5 °F 18% 29.96 in 10.0 mi East 3.5 mph - N/A   Clear
2:36 PM 62.8 °F - 16.5 °F 17% 29.95 in 10.0 mi Calm Calm - N/A   Clear
2:56 PM 65.3 °F - 18.9 °F 17% 29.95 in 10.0 mi East 5.8 mph - N/A   Clear
3:16 PM 64.6 °F - 17.1 °F 16% 29.93 in 10.0 mi SE 4.6 mph - N/A   Clear
3:36 PM 64.9 °F - 16.7 °F 16% 29.93 in 10.0 mi East 3.5 mph - N/A   Clear
3:56 PM 64.8 °F - 13.6 °F 14% 29.92 in 10.0 mi Calm Calm - N/A   Clear
4:16 PM 66.0 °F - 17.4 °F 15% 29.91 in 10.0 mi SSE 6.9 mph - N/A   Clear
4:36 PM 65.5 °F - 16.3 °F 15% 29.90 in 10.0 mi East 4.6 mph - N/A   Clear
4:56 PM 65.8 °F - 15.6 °F 14% 29.90 in 10.0 mi East 4.6 mph - N/A   Clear
5:16 PM 65.5 °F - 14.2 °F 14% 29.90 in 10.0 mi Calm Calm - N/A   Clear
5:36 PM 65.5 °F - 15.4 °F 14% 29.91 in 10.0 mi Calm Calm - N/A   Clear
5:56 PM 65.3 °F - 15.8 °F 15% 29.92 in 10.0 mi NNE 5.8 mph - N/A   Clear
6:16 PM 59.2 °F - 29.7 °F 33% 29.92 in 10.0 mi North 9.2 mph - N/A   Clear
6:36 PM 60.6 °F - 28.4 °F 29% 29.92 in 10.0 mi North 12.7 mph - N/A   Clear
6:56 PM 59.4 °F - 28.2 °F 31% 29.92 in 10.0 mi North 8.1 mph - N/A   Clear
7:16 PM 56.5 °F - 30.6 °F 37% 29.93 in 10.0 mi NNW 6.9 mph - N/A   Clear
7:36 PM 54.3 °F - 30.4 °F 40% 29.93 in 10.0 mi NNW 4.6 mph - N/A   Clear
7:56 PM 50.5 °F - 31.5 °F 48% 29.93 in 10.0 mi Calm Calm - N/A   Clear
8:16 PM 47.7 °F - 32.2 °F 55% 29.94 in 10.0 mi Calm Calm - N/A   Clear
8:36 PM 49.6 °F - 31.6 °F 50% 29.96 in 10.0 mi Calm Calm - N/A   Clear
8:56 PM 49.5 °F - 30.4 °F 48% 29.97 in 10.0 mi Calm Calm - N/A   Clear
9:16 PM 47.3 °F - 31.5 °F 54% 29.98 in 10.0 mi Calm Calm - N/A   Clear
9:36 PM 45.7 °F - 32.5 °F 60% 29.99 in 10.0 mi Calm Calm - N/A   Clear
9:56 PM 43.7 °F - 34.7 °F 71% 30.00 in 10.0 mi Calm Calm - N/A   Clear
10:16 PM 43.0 °F - 33.8 °F 70% 30.01 in 10.0 mi Calm Calm - N/A   Clear
10:36 PM 43.5 °F - 33.1 °F 67% 30.01 in 10.0 mi Calm Calm - N/A   Clear
10:56 PM 42.4 °F - 33.8 °F 71% 30.01 in 10.0 mi Calm Calm - N/A   Clear
11:16 PM 43.0 °F 41.3 °F 32.0 °F 65% 30.01 in 10.0 mi South 3.5 mph - N/A   Clear
11:36 PM 44.2 °F 42.7 °F 31.5 °F 61% 30.01 in 10.0 mi SSW 3.5 mph - N/A   Clear
11:56 PM 44.4 °F 42.9 °F 31.5 °F 60% 30.01 in 10.0 mi South 3.5 mph - N/A   Clear